createdAt,value
2019-02-26T00:02:17.322Z,0.13
2019-02-26T00:04:49.132Z,-0.06
2019-02-26T00:07:20.258Z,-0.19
2019-02-26T00:09:51.229Z,-0.05
2019-02-26T00:12:21.912Z,-0.06
2019-02-26T00:14:50.169Z,-0.17
2019-02-26T00:17:20.205Z,-0.13
2019-02-26T00:19:49.978Z,-0.28
2019-02-26T00:22:18.765Z,-0.12
2019-02-26T00:24:47.544Z,-0.04
2019-02-26T00:27:16.346Z,-0.08
2019-02-26T00:29:46.460Z,-0.10
2019-02-26T00:32:16.155Z,0.03
2019-02-26T00:34:46.144Z,0.12
2019-02-26T00:37:14.905Z,0.21
2019-02-26T00:39:45.350Z,0.10
2019-02-26T00:42:14.221Z,-0.09
2019-02-26T00:44:43.021Z,-0.26
2019-02-26T00:47:11.803Z,-0.50
2019-02-26T00:49:44.162Z,-0.60
2019-02-26T00:52:15.550Z,-0.64
2019-02-26T00:54:44.000Z,-0.67
2019-02-26T00:57:13.959Z,-0.72
2019-02-26T00:59:44.076Z,-0.77
2019-02-26T01:02:13.439Z,-0.64
2019-02-26T01:04:44.700Z,-0.65
2019-02-26T01:07:12.838Z,-0.66
2019-02-26T01:09:41.607Z,-0.49
2019-02-26T01:12:13.221Z,-0.41
2019-02-26T01:14:41.939Z,-0.36
2019-02-26T01:17:14.824Z,-0.41
2019-02-26T01:19:44.543Z,-0.42
2019-02-26T01:22:13.336Z,-0.52
2019-02-26T01:24:42.175Z,-0.61
2019-02-26T01:27:13.585Z,-0.61
2019-02-26T01:29:44.527Z,-0.60
2019-02-26T01:32:13.793Z,-0.46
2019-02-26T01:34:44.991Z,-0.40
2019-02-26T01:37:13.881Z,-0.43
2019-02-26T01:39:44.694Z,-0.57
2019-02-26T01:42:17.397Z,-0.70
2019-02-26T01:44:44.631Z,-0.80
2019-02-26T01:47:13.530Z,-0.71
2019-02-26T01:49:44.072Z,-0.42
2019-02-26T01:52:14.971Z,-0.47
2019-02-26T01:54:43.411Z,-0.40
2019-02-26T01:57:12.181Z,-0.39
2019-02-26T01:59:40.950Z,-0.56
2019-02-26T02:02:12.268Z,-0.69
2019-02-26T02:04:41.195Z,-0.87
2019-02-26T02:07:10.785Z,-0.88
2019-02-26T02:09:39.584Z,-0.80
2019-02-26T02:12:29.649Z,-0.75
2019-02-26T02:14:58.252Z,-0.92
2019-02-26T02:17:28.830Z,-0.90
2019-02-26T02:19:57.624Z,-0.84
2019-02-26T02:22:26.420Z,-0.52
2019-02-26T02:24:55.670Z,-0.15
2019-02-26T02:27:27.286Z,-0.18
2019-02-26T02:29:57.655Z,-0.25
2019-02-26T02:32:28.756Z,-0.65
2019-02-26T02:35:00.517Z,-0.97
2019-02-26T02:37:30.019Z,-0.95
2019-02-26T02:39:58.489Z,-0.72
2019-02-26T02:42:27.327Z,-0.82
2019-02-26T02:44:56.147Z,-1.01
2019-02-26T02:47:30.834Z,-1.00
2019-02-26T02:49:58.692Z,-0.82
2019-02-26T02:52:29.852Z,-0.70
2019-02-26T02:54:58.551Z,-1.02
2019-02-26T02:57:29.460Z,-1.06
2019-02-26T02:59:59.682Z,-1.20
2019-02-26T03:02:28.921Z,-1.20
2019-02-26T03:04:57.707Z,-1.06
2019-02-26T03:07:28.844Z,-1.07
2019-02-26T03:09:58.017Z,-1.16
2019-02-26T03:12:27.674Z,-1.17
2019-02-26T03:14:58.891Z,-1.21
2019-02-26T03:17:27.253Z,-1.29
2019-02-26T03:19:58.705Z,-1.25
2019-02-26T03:22:27.272Z,-1.09
2019-02-26T03:24:57.597Z,-1.07
2019-02-26T03:27:28.374Z,-1.16
2019-02-26T03:30:01.933Z,-1.10
2019-02-26T03:32:31.764Z,-1.08
2019-02-26T03:35:04.369Z,-0.90
2019-02-26T03:37:31.883Z,-0.85
2019-02-26T03:40:03.690Z,-1.05
2019-02-26T03:42:33.470Z,-1.07
2019-02-26T03:45:03.870Z,-1.17
2019-02-26T03:47:33.886Z,-1.28
2019-02-26T03:50:02.738Z,-1.53
2019-02-26T03:52:32.239Z,-1.55
2019-02-26T03:55:03.498Z,-1.55
2019-02-26T03:57:32.101Z,-1.42
2019-02-26T04:00:05.658Z,-1.32
2019-02-26T04:02:31.968Z,-1.36
2019-02-26T04:05:02.989Z,-1.31
2019-02-26T04:07:33.396Z,-1.24
2019-02-26T04:10:02.175Z,-1.52
2019-02-26T04:12:35.822Z,-1.52
2019-02-26T04:15:02.673Z,-1.49
2019-02-26T04:17:33.678Z,-1.41
2019-02-26T04:20:05.361Z,-1.30
2019-02-26T04:22:39.187Z,-1.40
2019-02-26T04:25:31.413Z,-1.75
2019-02-26T04:28:08.161Z,-1.75
2019-02-26T04:31:18.001Z,-1.65
2019-02-26T04:34:25.845Z,-1.67
2019-02-26T04:37:07.286Z,-1.77
2019-02-26T04:40:04.956Z,-1.79
2019-02-26T04:43:12.977Z,-1.90
2019-02-26T04:46:13.621Z,-1.86
2019-02-26T04:48:42.903Z,-1.96
2019-02-26T04:51:11.777Z,-1.98
2019-02-26T04:53:40.676Z,-1.93
2019-02-26T04:56:12.830Z,-1.93
2019-02-26T04:58:42.566Z,-1.90
2019-02-26T05:01:12.977Z,-1.75
2019-02-26T05:03:42.591Z,-1.67
2019-02-26T05:06:11.450Z,-1.56
2019-02-26T05:08:43.170Z,-1.61
2019-02-26T05:11:19.049Z,-1.69
2019-02-26T05:13:44.333Z,-1.68
2019-02-26T05:16:14.321Z,-2.03
2019-02-26T05:18:45.893Z,-2.24
2019-02-26T05:21:14.005Z,-2.15
2019-02-26T05:23:42.862Z,-2.18
2019-02-26T05:26:15.250Z,-2.40
2019-02-26T05:28:44.217Z,-2.69
2019-02-26T05:31:15.115Z,-2.71
2019-02-26T05:33:46.343Z,-2.49
2019-02-26T05:36:17.122Z,-2.37
2019-02-26T05:38:46.257Z,-2.37
2019-02-26T05:41:15.150Z,-2.32
2019-02-26T05:43:49.331Z,-2.37
2019-02-26T05:46:18.859Z,-2.30
2019-02-26T05:48:48.464Z,-2.17
2019-02-26T05:51:16.971Z,-1.86
2019-02-26T05:53:56.459Z,-1.83
2019-02-26T05:56:54.506Z,-1.90
2019-02-26T05:59:38.756Z,-1.98
2019-02-26T06:02:07.527Z,-2.47
2019-02-26T06:04:38.393Z,-2.69
2019-02-26T06:07:07.124Z,-2.55
2019-02-26T06:09:35.911Z,-2.51
2019-02-26T06:12:05.086Z,-2.42
2019-02-26T06:14:36.129Z,-2.67
2019-02-26T06:17:04.925Z,-2.68
2019-02-26T06:19:44.962Z,-2.62
2019-02-26T06:22:16.861Z,-2.54
2019-02-26T06:24:45.234Z,-2.39
2019-02-26T06:27:18.275Z,-2.31
2019-02-26T06:29:45.756Z,-2.33
2019-02-26T06:32:15.735Z,-2.26
2019-02-26T06:34:45.003Z,-2.26
2019-02-26T06:37:17.135Z,-2.38
2019-02-26T06:39:50.583Z,-2.36
2019-02-26T06:42:18.082Z,-2.29
2019-02-26T06:44:49.451Z,-2.26
2019-02-26T06:47:18.572Z,-2.26
2019-02-26T06:49:50.224Z,-2.26
2019-02-26T06:52:19.671Z,-2.14
2019-02-26T06:54:54.800Z,-2.02
2019-02-26T06:57:21.224Z,-1.96
2019-02-26T06:59:53.651Z,-1.79
2019-02-26T07:02:22.266Z,-1.73
2019-02-26T07:04:51.379Z,-1.61
2019-02-26T07:07:20.593Z,-1.49
2019-02-26T07:09:50.523Z,-1.29
2019-02-26T07:12:45.269Z,-0.99
2019-02-26T07:15:31.578Z,-0.86
2019-02-26T07:18:04.423Z,-0.72
2019-02-26T07:20:34.119Z,-0.69
2019-02-26T07:23:03.195Z,-0.69
2019-02-26T07:25:34.534Z,-0.53
2019-02-26T07:28:03.028Z,-0.44
2019-02-26T07:30:34.706Z,-0.30
2019-02-26T07:33:05.412Z,-0.18
2019-02-26T07:35:37.363Z,0.01
2019-02-26T07:38:06.120Z,0.17
2019-02-26T07:40:37.780Z,0.37
2019-02-26T07:43:09.110Z,0.65
2019-02-26T07:45:36.519Z,0.89
2019-02-26T07:48:06.345Z,0.89
2019-02-26T07:50:38.273Z,0.90
2019-02-26T07:53:06.351Z,1.09
2019-02-26T07:55:37.677Z,1.13
2019-02-26T07:58:17.920Z,1.36
2019-02-26T08:00:49.720Z,1.59
2019-02-26T08:03:21.862Z,1.73
2019-02-26T08:05:54.163Z,1.85
2019-02-26T08:08:34.664Z,2.02
2019-02-26T08:11:04.823Z,2.36
2019-02-26T08:13:36.504Z,2.64
2019-02-26T08:16:05.805Z,2.92
2019-02-26T08:18:35.393Z,3.04
2019-02-26T08:21:05.250Z,3.34
2019-02-26T08:23:37.998Z,3.42
2019-02-26T08:26:08.594Z,3.65
2019-02-26T08:28:38.909Z,3.65
2019-02-26T08:31:13.369Z,3.63
2019-02-26T08:33:40.396Z,3.78
2019-02-26T08:36:09.181Z,3.88
2019-02-26T08:38:38.371Z,4.01
2019-02-26T08:41:07.977Z,4.20
2019-02-26T08:43:42.133Z,4.31
2019-02-26T08:46:11.665Z,4.25
2019-02-26T08:48:44.289Z,4.44
2019-02-26T08:51:15.787Z,4.53
2019-02-26T08:53:47.605Z,4.61
2019-02-26T08:56:23.620Z,5.00
2019-02-26T08:58:53.893Z,5.11
2019-02-26T09:01:24.425Z,5.20
2019-02-26T09:04:08.588Z,5.54
2019-02-26T09:06:37.683Z,5.92
2019-02-26T09:09:08.803Z,6.05
2019-02-26T09:11:38.872Z,6.12
2019-02-26T09:14:09.855Z,6.46
2019-02-26T09:16:39.917Z,6.78
2019-02-26T09:19:09.359Z,7.03
2019-02-26T09:21:39.492Z,7.46
2019-02-26T09:24:09.323Z,7.31
2019-02-26T09:26:39.344Z,7.58
2019-02-26T09:29:10.397Z,7.88
2019-02-26T09:31:57.039Z,8.25
2019-02-26T09:34:26.654Z,8.53
2019-02-26T09:36:58.101Z,8.64
2019-02-26T09:39:27.562Z,8.86
2019-02-26T09:41:59.397Z,8.84
2019-02-26T09:44:29.296Z,9.11
2019-02-26T09:47:00.572Z,9.28
2019-02-26T09:49:31.477Z,9.40
2019-02-26T09:52:01.550Z,9.26
2019-02-26T09:54:31.057Z,9.43
2019-02-26T09:57:00.641Z,9.97
2019-02-26T09:59:31.441Z,10.58
2019-02-26T10:02:10.805Z,10.99
2019-02-26T10:04:42.486Z,11.26
2019-02-26T10:07:13.794Z,11.77
2019-02-26T10:09:45.908Z,12.51
2019-02-26T10:12:15.648Z,13.50
2019-02-26T10:14:44.898Z,13.86
2019-02-26T10:17:16.447Z,14.34
2019-02-26T10:19:45.110Z,15.45
2019-02-26T10:22:13.924Z,16.18
2019-02-26T10:24:43.130Z,16.59
2019-02-26T10:27:20.448Z,17.31
2019-02-26T10:29:50.000Z,17.41
2019-02-26T10:32:19.915Z,18.78
2019-02-26T10:34:48.807Z,19.06
2019-02-26T10:37:17.945Z,20.73
2019-02-26T10:39:49.719Z,21.10
2019-02-26T10:42:18.514Z,21.31
2019-02-26T10:44:48.487Z,21.69
2019-02-26T10:47:19.973Z,21.52
2019-02-26T10:49:51.370Z,22.24
2019-02-26T10:52:21.627Z,21.40
2019-02-26T10:54:51.343Z,22.50
2019-02-26T10:57:21.072Z,21.78
2019-02-26T10:59:56.919Z,22.99
2019-02-26T11:02:25.676Z,22.23
2019-02-26T11:04:55.530Z,23.86
2019-02-26T11:07:26.469Z,23.85
2019-02-26T11:09:56.246Z,25.58
2019-02-26T11:12:28.551Z,26.51
2019-02-26T11:14:58.633Z,27.01
2019-02-26T11:17:28.987Z,28.11
2019-02-26T11:20:01.155Z,28.58
2019-02-26T11:22:31.184Z,29.38
2019-02-26T11:28:07.968Z,28.56
2019-02-26T11:30:37.788Z,28.10
2019-02-26T11:33:10.486Z,29.12
2019-02-26T11:35:39.698Z,27.63
2019-02-26T11:38:11.734Z,26.75
2019-02-26T11:40:40.613Z,27.84
2019-02-26T11:43:12.379Z,28.33
2019-02-26T11:45:41.964Z,29.01
2019-02-26T11:48:11.249Z,30.34
2019-02-26T11:50:44.195Z,31.23
2019-02-26T11:53:10.875Z,30.05
2019-02-26T11:55:39.683Z,29.29
2019-02-26T11:58:10.835Z,26.36
2019-02-26T12:00:57.028Z,28.43
2019-02-26T12:03:29.744Z,30.36
2019-02-26T12:05:58.471Z,30.35
2019-02-26T12:08:26.752Z,30.49
2019-02-26T12:11:01.063Z,28.77
2019-02-26T12:13:27.667Z,29.94
2019-02-26T12:15:56.672Z,30.59
2019-02-26T12:18:25.562Z,27.87
2019-02-26T12:20:54.533Z,28.40
2019-02-26T12:23:23.346Z,27.34
2019-02-26T12:25:53.640Z,26.62
2019-02-26T12:28:25.171Z,26.22
2019-02-26T12:30:53.621Z,25.42
2019-02-26T12:33:24.109Z,26.27
2019-02-26T12:35:56.310Z,26.72
2019-02-26T12:38:25.637Z,28.41
2019-02-26T12:40:54.436Z,27.63
2019-02-26T12:43:23.256Z,26.53
2019-02-26T12:45:55.255Z,25.50
2019-02-26T12:48:24.420Z,26.23
2019-02-26T12:50:55.651Z,26.22
2019-02-26T12:53:24.745Z,26.51
2019-02-26T12:55:54.689Z,25.92
2019-02-26T12:58:27.774Z,25.48
2019-02-26T13:00:56.844Z,25.11
2019-02-26T13:03:26.383Z,25.45
2019-02-26T13:05:56.303Z,24.60
2019-02-26T13:08:25.582Z,24.86
2019-02-26T13:10:56.116Z,24.41
2019-02-26T13:13:25.739Z,23.71
2019-02-26T13:15:54.548Z,24.10
2019-02-26T13:18:23.321Z,23.71
2019-02-26T13:20:57.189Z,23.33
2019-02-26T13:23:22.605Z,23.70
2019-02-26T13:25:51.742Z,23.95
2019-02-26T13:28:20.550Z,24.29
2019-02-26T13:30:49.346Z,25.10
2019-02-26T13:33:22.419Z,25.36
2019-02-26T13:35:52.407Z,27.24
2019-02-26T13:38:24.455Z,28.26
2019-02-26T13:40:50.133Z,28.34
2019-02-26T13:43:18.988Z,26.59
2019-02-26T13:45:47.871Z,26.45
2019-02-26T13:48:17.383Z,25.11
2019-02-26T13:50:46.175Z,24.79
2019-02-26T13:53:16.020Z,25.56
2019-02-26T13:55:45.278Z,26.66
2019-02-26T13:58:14.075Z,27.42
2019-02-26T14:00:43.386Z,28.51
2019-02-26T14:03:12.280Z,28.49
2019-02-26T14:05:42.696Z,28.11
2019-02-26T14:08:12.309Z,26.44
2019-02-26T14:10:41.472Z,27.92
2019-02-26T14:13:11.626Z,27.28
2019-02-26T14:15:41.394Z,24.71
2019-02-26T14:18:10.267Z,25.86
2019-02-26T14:20:39.792Z,25.44
2019-02-26T14:23:08.608Z,27.15
2019-02-26T14:25:37.645Z,27.44
2019-02-26T14:28:06.490Z,28.17
2019-02-26T14:30:35.272Z,28.84
2019-02-26T14:33:04.883Z,28.47
2019-02-26T14:35:34.741Z,27.84
2019-02-26T14:38:04.555Z,26.88
2019-02-26T14:40:34.483Z,26.46
2019-02-26T14:43:04.086Z,26.98
2019-02-26T14:45:36.870Z,28.27
2019-02-26T14:48:06.141Z,28.36
2019-02-26T14:50:35.396Z,28.91
2019-02-26T14:53:04.166Z,28.80
2019-02-26T14:55:33.533Z,29.12
2019-02-26T14:58:02.308Z,27.66
2019-02-26T15:00:31.452Z,26.36
2019-02-26T15:03:01.434Z,25.97
2019-02-26T15:05:32.327Z,25.58
2019-02-26T15:08:01.526Z,25.10
2019-02-26T15:10:30.620Z,25.89
2019-02-26T15:12:59.944Z,25.18
2019-02-26T15:15:28.820Z,24.82
2019-02-26T15:17:57.590Z,25.16
2019-02-26T15:20:26.411Z,25.04
2019-02-26T15:22:55.331Z,24.76
2019-02-26T15:25:24.275Z,24.15
2019-02-26T15:27:53.163Z,24.27
2019-02-26T15:30:22.022Z,24.74
2019-02-26T15:32:50.983Z,24.66
2019-02-26T15:35:19.863Z,24.32
2019-02-26T15:37:48.884Z,24.11
2019-02-26T15:40:17.812Z,23.09
2019-02-26T15:42:46.918Z,23.03
2019-02-26T15:45:18.082Z,22.86
2019-02-26T15:47:46.960Z,22.89
2019-02-26T15:50:16.029Z,22.93
2019-02-26T15:52:44.832Z,22.99
2019-02-26T15:55:15.846Z,22.43
2019-02-26T15:57:44.894Z,21.88
2019-02-26T16:00:17.685Z,20.86
2019-02-26T16:02:46.857Z,20.38
2019-02-26T16:05:15.849Z,19.41
2019-02-26T16:07:44.674Z,17.98
2019-02-26T16:10:13.704Z,17.17
2019-02-26T16:12:42.654Z,15.28
2019-02-26T16:15:12.258Z,13.55
2019-02-26T16:17:41.453Z,12.45
2019-02-26T16:20:12.860Z,11.88
2019-02-26T16:22:41.729Z,11.49
2019-02-26T16:25:10.679Z,11.35
2019-02-26T16:27:39.646Z,11.14
2019-02-26T16:30:14.786Z,10.88
2019-02-26T16:32:43.665Z,10.80
2019-02-26T16:35:12.703Z,10.75
2019-02-26T16:37:42.163Z,10.87
2019-02-26T16:40:11.115Z,10.76
2019-02-26T16:42:44.391Z,10.38
2019-02-26T16:45:13.760Z,10.01
2019-02-26T16:47:42.752Z,9.98
2019-02-26T16:50:13.585Z,10.01
2019-02-26T16:52:43.624Z,9.67
2019-02-26T16:55:14.108Z,9.47
2019-02-26T16:57:43.827Z,9.30
2019-02-26T17:00:15.673Z,9.23
2019-02-26T17:02:45.669Z,9.12
2019-02-26T17:05:15.200Z,8.93
2019-02-26T17:07:43.984Z,8.85
2019-02-26T17:10:14.981Z,8.60
2019-02-26T17:12:45.491Z,8.32
2019-02-26T17:15:24.015Z,7.96
2019-02-26T17:17:50.158Z,7.71
2019-02-26T17:20:19.579Z,7.38
2019-02-26T17:22:49.522Z,6.91
2019-02-26T17:25:18.286Z,6.43
2019-02-26T17:27:47.467Z,6.20
2019-02-26T17:30:16.820Z,6.31
2019-02-26T17:32:45.782Z,6.41
2019-02-26T17:35:15.251Z,6.52
2019-02-26T17:37:44.208Z,6.46
2019-02-26T17:40:13.856Z,6.35
2019-02-26T17:42:42.650Z,6.06
2019-02-26T17:45:13.677Z,5.94
2019-02-26T17:47:42.447Z,6.05
2019-02-26T17:50:14.210Z,5.92
2019-02-26T17:52:42.956Z,5.75
2019-02-26T17:55:11.869Z,5.68
2019-02-26T17:57:41.027Z,5.66
2019-02-26T18:00:12.016Z,5.71
2019-02-26T18:02:40.785Z,5.77
2019-02-26T18:05:10.752Z,5.55
2019-02-26T18:07:39.753Z,5.31
2019-02-26T18:10:12.909Z,5.38
2019-02-26T18:12:42.686Z,5.31
2019-02-26T18:15:16.556Z,5.08
2019-02-26T18:17:42.818Z,4.91
2019-02-26T18:20:14.054Z,4.79
2019-02-26T18:22:42.996Z,4.37
2019-02-26T18:25:12.640Z,3.81
2019-02-26T18:27:41.474Z,3.57
2019-02-26T18:30:16.026Z,3.47
2019-02-26T18:32:50.223Z,3.85
2019-02-26T18:35:15.384Z,4.11
2019-02-26T18:37:46.621Z,4.28
2019-02-26T18:40:15.516Z,4.15
2019-02-26T18:42:44.348Z,3.90
2019-02-26T18:45:16.027Z,3.78
2019-02-26T18:47:44.860Z,3.70
2019-02-26T18:50:13.775Z,3.39
2019-02-26T18:52:42.647Z,2.90
2019-02-26T18:55:13.564Z,2.70
2019-02-26T18:57:43.669Z,2.59
2019-02-26T19:00:15.856Z,2.27
2019-02-26T19:02:44.764Z,2.58
2019-02-26T19:05:13.758Z,2.81
2019-02-26T19:07:42.602Z,3.29
2019-02-26T19:10:17.766Z,3.23
2019-02-26T19:12:44.085Z,3.08
2019-02-26T19:15:15.401Z,2.64
2019-02-26T19:17:47.604Z,2.13
2019-02-26T19:20:18.547Z,2.04
2019-02-26T19:22:47.622Z,1.83
2019-02-26T19:25:16.901Z,1.56
2019-02-26T19:27:48.015Z,1.82
2019-02-26T19:30:18.102Z,2.04
2019-02-26T19:32:47.749Z,1.88
2019-02-26T19:35:17.344Z,2.08
2019-02-26T19:37:47.032Z,2.32
2019-02-26T19:40:17.996Z,2.25
2019-02-26T19:42:47.602Z,2.15
2019-02-26T19:45:17.657Z,1.93
2019-02-26T19:47:47.228Z,1.90
2019-02-26T19:50:16.798Z,1.80
2019-02-26T19:52:45.943Z,1.80
2019-02-26T19:55:18.311Z,1.80
2019-02-26T19:57:47.080Z,1.94
2019-02-26T20:00:19.674Z,2.15
2019-02-26T20:02:47.449Z,1.99
2019-02-26T20:05:16.640Z,1.85
2019-02-26T20:07:45.739Z,1.76
2019-02-26T20:10:15.779Z,1.66
2019-02-26T20:12:45.016Z,1.72
2019-02-26T20:15:13.925Z,1.67
2019-02-26T20:17:42.766Z,2.12
2019-02-26T20:20:13.050Z,2.01
2019-02-26T20:22:42.099Z,1.90
2019-02-26T20:25:14.134Z,1.86
2019-02-26T20:27:42.928Z,1.73
2019-02-26T20:30:14.477Z,1.73
2019-02-26T20:32:44.337Z,1.83
2019-02-26T20:35:15.955Z,1.78
2019-02-26T20:37:44.508Z,1.56
2019-02-26T20:40:16.387Z,1.42
2019-02-26T20:42:45.751Z,1.45
2019-02-26T20:45:18.055Z,1.55
2019-02-26T20:47:46.683Z,1.24
2019-02-26T20:50:19.990Z,1.06
2019-02-26T20:52:46.548Z,1.05
2019-02-26T20:55:19.185Z,1.06
2019-02-26T20:57:47.536Z,0.85
2019-02-26T21:00:17.536Z,0.35
2019-02-26T21:02:46.446Z,0.14
2019-02-26T21:05:15.650Z,0.21
2019-02-26T21:07:44.591Z,0.17
2019-02-26T21:10:15.419Z,0.26
2019-02-26T21:12:45.005Z,0.33
2019-02-26T21:15:15.636Z,0.41
2019-02-26T21:17:44.587Z,0.56
2019-02-26T21:20:13.565Z,0.88
2019-02-26T21:22:42.413Z,1.02
2019-02-26T21:25:11.489Z,1.19
2019-02-26T21:27:40.349Z,1.14
2019-02-26T21:30:12.079Z,0.83
2019-02-26T21:32:41.341Z,0.70
2019-02-26T21:35:10.283Z,0.85
2019-02-26T21:37:39.236Z,0.64
2019-02-26T21:40:09.403Z,0.63
2019-02-26T21:42:38.173Z,0.56
2019-02-26T21:45:08.369Z,0.48
2019-02-26T21:47:37.193Z,0.45
2019-02-26T21:50:06.773Z,0.36
2019-02-26T21:52:35.560Z,0.30
2019-02-26T21:55:04.630Z,0.28
2019-02-26T21:57:33.541Z,0.44
2019-02-26T22:00:05.107Z,0.64
2019-02-26T22:02:32.844Z,0.95
2019-02-26T22:05:04.977Z,0.89
2019-02-26T22:07:32.099Z,0.66
2019-02-26T22:10:00.898Z,0.34
2019-02-26T22:12:29.669Z,0.08
2019-02-26T22:14:58.431Z,0.00
2019-02-26T22:17:27.343Z,-0.10
2019-02-26T22:19:56.104Z,-0.27
2019-02-26T22:22:26.239Z,-0.34
2019-02-26T22:24:55.713Z,-0.22
2019-02-26T22:27:24.792Z,-0.02
2019-02-26T22:29:53.543Z,-0.01
2019-02-26T22:32:22.751Z,0.03
2019-02-26T22:34:53.560Z,-0.04
2019-02-26T22:37:22.831Z,-0.23
2019-02-26T22:39:53.598Z,-0.34
2019-02-26T22:42:23.323Z,-0.52
2019-02-26T22:44:54.631Z,-0.69
2019-02-26T22:47:25.401Z,-0.73
2019-02-26T22:49:55.322Z,-0.73
2019-02-26T22:52:24.964Z,-0.77
2019-02-26T22:54:54.901Z,-0.57
2019-02-26T22:57:24.448Z,-0.52
2019-02-26T23:00:00.454Z,-0.47
2019-02-26T23:02:31.351Z,-0.58
2019-02-26T23:05:00.251Z,-0.64
2019-02-26T23:07:29.210Z,-0.66
2019-02-26T23:09:58.842Z,-0.53
2019-02-26T23:12:28.788Z,-0.41
2019-02-26T23:15:00.290Z,-0.23
2019-02-26T23:17:30.218Z,-0.12
2019-02-26T23:20:00.384Z,-0.16
2019-02-26T23:22:30.694Z,-0.33
2019-02-26T23:25:00.999Z,-0.37
2019-02-26T23:27:31.724Z,-0.39
2019-02-26T23:30:01.758Z,-0.46
2019-02-26T23:32:30.979Z,-0.69
2019-02-26T23:35:04.909Z,-1.01
2019-02-26T23:37:34.657Z,-1.28
2019-02-26T23:40:04.922Z,-1.47
2019-02-26T23:42:33.937Z,-1.58
2019-02-26T23:45:02.886Z,-1.64
2019-02-26T23:47:34.987Z,-1.49
2019-02-26T23:50:02.609Z,-1.56
2019-02-26T23:52:31.479Z,-1.57
2019-02-26T23:55:00.289Z,-1.69
2019-02-26T23:57:29.459Z,-1.64
2019-02-26T23:59:58.701Z,-1.28
